createdAt,value
2023-05-23T00:00:47.582Z,15.78
2023-05-23T00:01:47.614Z,15.77
2023-05-23T00:02:47.651Z,15.74
2023-05-23T00:03:47.719Z,15.74
2023-05-23T00:04:47.525Z,15.74
2023-05-23T00:05:47.528Z,15.77
2023-05-23T00:06:47.532Z,15.77
2023-05-23T00:07:47.499Z,15.76
2023-05-23T00:08:47.490Z,15.78
2023-05-23T00:09:47.480Z,15.80
2023-05-23T00:10:47.461Z,15.78
2023-05-23T00:11:47.461Z,15.81
2023-05-23T00:12:47.440Z,15.81
2023-05-23T00:13:47.429Z,15.78
2023-05-23T00:14:47.419Z,15.77
2023-05-23T00:15:47.405Z,15.77
2023-05-23T00:16:47.433Z,15.74
2023-05-23T00:17:47.402Z,15.77
2023-05-23T00:18:47.419Z,15.78
2023-05-23T00:19:47.360Z,15.77
2023-05-23T00:20:47.351Z,15.76
2023-05-23T00:21:47.347Z,15.74
2023-05-23T00:22:47.328Z,15.74
2023-05-23T00:23:47.327Z,15.73
2023-05-23T00:24:47.326Z,15.70
2023-05-23T00:25:47.335Z,15.67
2023-05-23T00:26:47.304Z,15.62
2023-05-23T00:27:47.273Z,15.60
2023-05-23T00:28:47.259Z,15.55
2023-05-23T00:29:47.251Z,15.58
2023-05-23T00:30:47.344Z,15.58
2023-05-23T00:31:47.536Z,15.56
2023-05-23T00:32:47.250Z,15.52
2023-05-23T00:33:47.214Z,15.51
2023-05-23T00:34:47.209Z,15.49
2023-05-23T00:35:47.203Z,15.44
2023-05-23T00:36:47.178Z,15.44
2023-05-23T00:37:47.168Z,15.43
2023-05-23T00:38:47.156Z,15.43
2023-05-23T00:39:47.146Z,15.46
2023-05-23T00:40:47.142Z,15.43
2023-05-23T00:41:49.169Z,15.41
2023-05-23T00:42:47.112Z,15.40
2023-05-23T00:43:47.117Z,15.41
2023-05-23T00:44:47.099Z,15.43
2023-05-23T00:45:47.077Z,15.46
2023-05-23T00:46:47.101Z,15.41
2023-05-23T00:47:47.085Z,15.40
2023-05-23T00:48:47.048Z,15.37
2023-05-23T00:49:47.041Z,15.35
2023-05-23T00:50:47.021Z,15.31
2023-05-23T00:51:47.009Z,15.31
2023-05-23T00:52:46.995Z,15.30
2023-05-23T00:53:47.001Z,15.28
2023-05-23T00:54:46.990Z,15.27
2023-05-23T00:55:46.971Z,15.27
2023-05-23T00:56:46.970Z,15.20
2023-05-23T00:57:46.956Z,15.20
2023-05-23T00:58:46.948Z,15.20
2023-05-23T00:59:46.934Z,15.19
2023-05-23T01:00:46.912Z,15.18
2023-05-23T01:01:47.581Z,15.19
2023-05-23T01:02:46.933Z,15.25
2023-05-23T01:03:46.950Z,15.23
2023-05-23T01:04:46.866Z,15.22
2023-05-23T01:05:46.858Z,15.22
2023-05-23T01:06:47.088Z,15.22
2023-05-23T01:07:46.847Z,15.23
2023-05-23T01:08:46.833Z,15.22
2023-05-23T01:09:46.812Z,15.22
2023-05-23T01:10:46.796Z,15.22
2023-05-23T01:11:46.791Z,15.19
2023-05-23T01:12:46.778Z,15.22
2023-05-23T01:13:46.775Z,15.22
2023-05-23T01:14:46.773Z,15.22
2023-05-23T01:15:46.743Z,15.25
2023-05-23T01:16:46.797Z,15.27
2023-05-23T01:17:46.749Z,15.25
2023-05-23T01:18:46.759Z,15.28
2023-05-23T01:19:46.699Z,15.23
2023-05-23T01:20:46.683Z,15.22
2023-05-23T01:21:46.691Z,15.19
2023-05-23T01:22:46.683Z,15.19
2023-05-23T01:23:46.657Z,15.16
2023-05-23T01:24:46.638Z,15.18
2023-05-23T01:25:46.631Z,15.19
2023-05-23T01:26:46.628Z,15.19
2023-05-23T01:27:46.616Z,15.19
2023-05-23T01:28:46.603Z,15.23
2023-05-23T01:29:46.589Z,15.22
2023-05-23T01:30:46.572Z,15.23
2023-05-23T01:31:46.610Z,15.23
2023-05-23T01:32:46.603Z,15.23
2023-05-23T01:33:46.589Z,15.25
2023-05-23T01:34:46.533Z,15.28
2023-05-23T01:35:46.534Z,15.28
2023-05-23T01:36:46.516Z,15.28
2023-05-23T01:37:46.506Z,15.28
2023-05-23T01:38:46.482Z,15.30
2023-05-23T01:39:46.479Z,15.28
2023-05-23T01:40:46.474Z,15.23
2023-05-23T01:41:46.470Z,15.27
2023-05-23T01:42:46.448Z,15.25
2023-05-23T01:43:46.437Z,15.23
2023-05-23T01:44:46.445Z,15.23
2023-05-23T01:45:46.424Z,15.27
2023-05-23T01:46:46.406Z,15.30
2023-05-23T01:47:46.417Z,15.30
2023-05-23T01:48:46.388Z,15.30
2023-05-23T01:49:46.382Z,15.31
2023-05-23T01:50:46.375Z,15.30
2023-05-23T01:51:46.348Z,15.33
2023-05-23T01:52:46.338Z,15.31
2023-05-23T01:53:46.330Z,15.27
2023-05-23T01:54:46.329Z,15.23
2023-05-23T01:55:46.304Z,15.23
2023-05-23T01:56:46.305Z,15.22
2023-05-23T01:57:46.279Z,15.20
2023-05-23T01:58:46.280Z,15.19
2023-05-23T01:59:46.273Z,15.18
2023-05-23T02:00:46.267Z,15.19
2023-05-23T02:01:46.236Z,15.20
2023-05-23T02:02:46.337Z,15.18
2023-05-23T02:03:46.241Z,15.16
2023-05-23T02:04:46.217Z,15.15
2023-05-23T02:05:46.211Z,15.16
2023-05-23T02:06:46.194Z,15.18
2023-05-23T02:07:46.178Z,15.22
2023-05-23T02:08:46.196Z,15.19
2023-05-23T02:09:46.291Z,15.22
2023-05-23T02:10:46.146Z,15.22
2023-05-23T02:11:46.138Z,15.18
2023-05-23T02:12:46.130Z,15.16
2023-05-23T02:13:46.116Z,15.18
2023-05-23T02:14:46.099Z,15.19
2023-05-23T02:15:46.100Z,15.23
2023-05-23T02:16:46.159Z,15.23
2023-05-23T02:17:46.155Z,15.23
2023-05-23T02:18:46.193Z,15.27
2023-05-23T02:19:46.050Z,15.23
2023-05-23T02:20:46.045Z,15.23
2023-05-23T02:21:46.019Z,15.25
2023-05-23T02:22:46.026Z,15.19
2023-05-23T02:23:46.002Z,15.19
2023-05-23T02:24:46.009Z,15.18
2023-05-23T02:25:45.984Z,15.13
2023-05-23T02:26:45.983Z,15.13
2023-05-23T02:27:45.978Z,15.13
2023-05-23T02:28:45.939Z,15.15
2023-05-23T02:29:45.929Z,15.13
2023-05-23T02:30:46.025Z,15.15
2023-05-23T02:31:46.045Z,15.16
2023-05-23T02:32:45.947Z,15.15
2023-05-23T02:33:45.888Z,15.15
2023-05-23T02:34:45.880Z,15.16
2023-05-23T02:35:45.864Z,15.16
2023-05-23T02:36:45.872Z,15.18
2023-05-23T02:37:45.847Z,15.20
2023-05-23T02:38:45.846Z,15.22
2023-05-23T02:39:45.824Z,15.20
2023-05-23T02:40:45.818Z,15.20
2023-05-23T02:41:45.805Z,15.18
2023-05-23T02:42:45.788Z,15.15
2023-05-23T02:43:46.830Z,15.13
2023-05-23T02:44:45.774Z,15.15
2023-05-23T02:45:45.774Z,15.15
2023-05-23T02:46:45.838Z,15.12
2023-05-23T02:47:45.768Z,15.15
2023-05-23T02:48:45.731Z,15.15
2023-05-23T02:49:45.712Z,15.18
2023-05-23T02:50:45.716Z,15.16
2023-05-23T02:51:45.687Z,15.11
2023-05-23T02:52:45.679Z,15.07
2023-05-23T02:53:45.668Z,15.09
2023-05-23T02:54:45.669Z,15.04
2023-05-23T02:55:45.656Z,15.03
2023-05-23T02:56:45.636Z,15.09
2023-05-23T02:57:45.666Z,15.07
2023-05-23T02:58:45.620Z,15.11
2023-05-23T02:59:45.607Z,15.07
2023-05-23T03:00:45.605Z,15.04
2023-05-23T03:01:45.625Z,15.03
2023-05-23T03:02:45.639Z,14.97
2023-05-23T03:03:45.668Z,14.97
2023-05-23T03:04:45.675Z,14.95
2023-05-23T03:05:45.589Z,14.97
2023-05-23T03:06:45.640Z,14.97
2023-05-23T03:07:45.562Z,14.93
2023-05-23T03:08:45.613Z,14.87
2023-05-23T03:09:45.610Z,14.90
2023-05-23T03:10:45.604Z,14.83
2023-05-23T03:11:45.581Z,14.80
2023-05-23T03:12:45.604Z,14.82
2023-05-23T03:13:45.590Z,14.83
2023-05-23T03:14:45.555Z,14.82
2023-05-23T03:15:45.537Z,14.82
2023-05-23T03:16:45.567Z,14.82
2023-05-23T03:17:45.546Z,14.80
2023-05-23T03:18:45.518Z,14.75
2023-05-23T03:19:45.488Z,14.74
2023-05-23T03:20:45.477Z,14.74
2023-05-23T03:21:45.470Z,14.67
2023-05-23T03:22:45.533Z,14.71
2023-05-23T03:23:45.453Z,14.72
2023-05-23T03:24:45.440Z,14.72
2023-05-23T03:25:45.424Z,14.74
2023-05-23T03:26:45.410Z,14.79
2023-05-23T03:27:45.398Z,14.72
2023-05-23T03:28:45.402Z,14.71
2023-05-23T03:29:45.380Z,14.71
2023-05-23T03:30:45.367Z,14.74
2023-05-23T03:31:45.395Z,14.72
2023-05-23T03:32:45.407Z,14.71
2023-05-23T03:33:45.345Z,14.71
2023-05-23T03:34:45.322Z,14.67
2023-05-23T03:35:45.313Z,14.66
2023-05-23T03:36:45.310Z,14.64
2023-05-23T03:37:45.303Z,14.61
2023-05-23T03:38:45.300Z,14.61
2023-05-23T03:39:45.274Z,14.60
2023-05-23T03:40:45.255Z,14.64
2023-05-23T03:41:45.251Z,14.67
2023-05-23T03:42:45.250Z,14.67
2023-05-23T03:43:45.228Z,14.66
2023-05-23T03:44:45.229Z,14.71
2023-05-23T03:45:45.374Z,14.72
2023-05-23T03:46:45.207Z,14.74
2023-05-23T03:47:45.278Z,14.78
2023-05-23T03:48:45.169Z,14.80
2023-05-23T03:49:45.180Z,14.79
2023-05-23T03:50:45.154Z,14.80
2023-05-23T03:51:45.144Z,14.80
2023-05-23T03:52:45.145Z,14.79
2023-05-23T03:53:45.111Z,14.78
2023-05-23T03:54:45.105Z,14.78
2023-05-23T03:55:45.107Z,14.75
2023-05-23T03:56:45.089Z,14.75
2023-05-23T03:57:45.067Z,14.78
2023-05-23T03:58:45.057Z,14.80
2023-05-23T03:59:45.049Z,14.80
2023-05-23T04:00:45.048Z,14.79
2023-05-23T04:01:45.046Z,14.75
2023-05-23T04:02:45.171Z,14.75
2023-05-23T04:03:45.052Z,14.78
2023-05-23T04:04:45.017Z,14.79
2023-05-23T04:05:44.996Z,14.78
2023-05-23T04:06:44.963Z,14.80
2023-05-23T04:07:44.956Z,14.80
2023-05-23T04:08:44.945Z,14.79
2023-05-23T04:09:44.943Z,14.78
2023-05-23T04:10:44.934Z,14.78
2023-05-23T04:11:44.920Z,14.78
2023-05-23T04:12:44.919Z,14.78
2023-05-23T04:13:44.905Z,14.78
2023-05-23T04:14:44.900Z,14.78
2023-05-23T04:15:45.010Z,14.78
2023-05-23T04:16:45.037Z,14.79
2023-05-23T04:17:44.903Z,14.80
2023-05-23T04:18:44.829Z,14.82
2023-05-23T04:19:44.869Z,14.82
2023-05-23T04:20:44.812Z,14.83
2023-05-23T04:21:44.717Z,14.83
2023-05-23T04:22:44.705Z,14.82
2023-05-23T04:23:44.705Z,14.80
2023-05-23T04:24:44.693Z,14.80
2023-05-23T04:25:44.648Z,14.79
2023-05-23T04:26:44.668Z,14.82
2023-05-23T04:27:44.637Z,14.78
2023-05-23T04:28:44.620Z,14.79
2023-05-23T04:29:44.609Z,14.80
2023-05-23T04:30:44.586Z,14.82
2023-05-23T04:31:44.714Z,14.83
2023-05-23T04:32:44.598Z,14.86
2023-05-23T04:33:44.570Z,14.86
2023-05-23T04:34:44.544Z,14.85
2023-05-23T04:35:44.542Z,14.79
2023-05-23T04:36:44.547Z,14.72
2023-05-23T04:37:44.531Z,14.67
2023-05-23T04:38:44.518Z,14.71
2023-05-23T04:39:44.497Z,14.71
2023-05-23T04:40:44.511Z,14.66
2023-05-23T04:41:44.478Z,14.63
2023-05-23T04:42:44.493Z,14.64
2023-05-23T04:43:44.458Z,14.61
2023-05-23T04:44:44.445Z,14.60
2023-05-23T04:45:44.429Z,14.59
2023-05-23T04:46:44.434Z,14.59
2023-05-23T04:47:44.461Z,14.60
2023-05-23T04:48:44.393Z,14.60
2023-05-23T04:49:44.391Z,14.60
2023-05-23T04:50:44.381Z,14.60
2023-05-23T04:51:44.374Z,14.60
2023-05-23T04:52:44.357Z,14.57
2023-05-23T04:53:44.345Z,14.57
2023-05-23T04:54:44.445Z,14.60
2023-05-23T04:55:44.325Z,14.59
2023-05-23T04:56:44.310Z,14.60
2023-05-23T04:57:44.296Z,14.59
2023-05-23T04:58:44.282Z,14.57
2023-05-23T04:59:44.277Z,14.54
2023-05-23T05:00:44.583Z,14.54
2023-05-23T05:01:44.307Z,14.54
2023-05-23T05:02:44.256Z,14.52
2023-05-23T05:03:44.288Z,14.52
2023-05-23T05:04:44.213Z,14.49
2023-05-23T05:05:44.233Z,14.49
2023-05-23T05:06:44.201Z,14.49
2023-05-23T05:07:44.182Z,14.53
2023-05-23T05:08:44.168Z,14.56
2023-05-23T05:09:44.162Z,14.57
2023-05-23T05:10:44.159Z,14.56
2023-05-23T05:11:44.149Z,14.60
2023-05-23T05:12:44.124Z,14.59
2023-05-23T05:13:44.122Z,14.60
2023-05-23T05:14:44.098Z,14.61
2023-05-23T05:15:44.113Z,14.63
2023-05-23T05:16:44.099Z,14.64
2023-05-23T05:17:44.133Z,14.61
2023-05-23T05:18:44.065Z,14.63
2023-05-23T05:19:44.060Z,14.64
2023-05-23T05:20:44.039Z,14.60
2023-05-23T05:21:44.033Z,14.60
2023-05-23T05:22:44.022Z,14.59
2023-05-23T05:23:44.020Z,14.56
2023-05-23T05:24:44.091Z,14.54
2023-05-23T05:25:43.987Z,14.54
2023-05-23T05:26:43.966Z,14.53
2023-05-23T05:27:43.956Z,14.53
2023-05-23T05:28:43.941Z,14.53
2023-05-23T05:29:43.947Z,14.48
2023-05-23T05:30:44.120Z,14.46
2023-05-23T05:31:43.958Z,14.44
2023-05-23T05:32:43.984Z,14.39
2023-05-23T05:33:43.902Z,14.36
2023-05-23T05:34:44.256Z,14.31
2023-05-23T05:35:43.870Z,14.30
2023-05-23T05:36:43.860Z,14.30
2023-05-23T05:37:43.860Z,14.29
2023-05-23T05:38:43.865Z,14.24
2023-05-23T05:39:43.839Z,14.19
2023-05-23T05:40:43.806Z,14.16
2023-05-23T05:41:43.810Z,14.19
2023-05-23T05:42:43.790Z,14.11
2023-05-23T05:43:43.797Z,14.11
2023-05-23T05:44:43.802Z,14.06
2023-05-23T05:45:43.767Z,14.04
2023-05-23T05:46:43.844Z,13.99
2023-05-23T05:47:43.760Z,13.96
2023-05-23T05:48:43.733Z,13.99
2023-05-23T05:49:43.719Z,13.93
2023-05-23T05:50:43.742Z,13.93
2023-05-23T05:51:43.692Z,13.90
2023-05-23T05:52:43.690Z,13.90
2023-05-23T05:53:43.686Z,13.87
2023-05-23T05:54:43.661Z,13.87
2023-05-23T05:55:43.673Z,13.86
2023-05-23T05:56:43.639Z,13.90
2023-05-23T05:57:43.634Z,13.88
2023-05-23T05:58:43.618Z,13.88
2023-05-23T05:59:43.602Z,13.88
2023-05-23T06:00:43.597Z,13.90
2023-05-23T06:01:43.583Z,13.93
2023-05-23T06:02:43.772Z,13.94
2023-05-23T06:03:43.757Z,13.99
2023-05-23T06:04:43.617Z,14.01
2023-05-23T06:05:43.561Z,13.99
2023-05-23T06:06:43.538Z,13.94
2023-05-23T06:07:43.540Z,13.98
2023-05-23T06:08:43.514Z,14.01
2023-05-23T06:09:43.503Z,14.04
2023-05-23T06:10:43.663Z,14.09
2023-05-23T06:11:43.495Z,14.11
2023-05-23T06:12:43.471Z,14.08
2023-05-23T06:13:43.502Z,14.08
2023-05-23T06:14:43.450Z,14.06
2023-05-23T06:15:43.424Z,14.01
2023-05-23T06:16:43.496Z,13.98
2023-05-23T06:17:43.416Z,14.01
2023-05-23T06:18:43.425Z,13.93
2023-05-23T06:19:43.386Z,13.94
2023-05-23T06:20:43.476Z,13.98
2023-05-23T06:21:43.526Z,14.04
2023-05-23T06:22:43.359Z,14.06
2023-05-23T06:23:43.336Z,14.05
2023-05-23T06:24:43.334Z,14.02
2023-05-23T06:25:43.338Z,14.01
2023-05-23T06:26:43.306Z,14.04
2023-05-23T06:27:43.297Z,13.98
2023-05-23T06:28:43.286Z,13.96
2023-05-23T06:29:43.277Z,13.81
2023-05-23T06:30:43.537Z,13.81
2023-05-23T06:31:43.286Z,13.80
2023-05-23T06:32:43.275Z,13.80
2023-05-23T06:33:43.233Z,13.86
2023-05-23T06:34:43.257Z,13.86
2023-05-23T06:35:43.236Z,13.87
2023-05-23T06:36:43.198Z,13.80
2023-05-23T06:37:43.179Z,13.76
2023-05-23T06:38:43.176Z,13.79
2023-05-23T06:39:43.168Z,13.83
2023-05-23T06:40:43.328Z,13.83
2023-05-23T06:41:43.135Z,13.83
2023-05-23T06:42:43.188Z,13.88
2023-05-23T06:43:43.109Z,13.88
2023-05-23T06:44:43.112Z,13.83
2023-05-23T06:45:43.102Z,13.83
2023-05-23T06:46:43.083Z,13.79
2023-05-23T06:47:43.117Z,13.76
2023-05-23T06:48:43.076Z,13.69
2023-05-23T06:49:43.089Z,13.75
2023-05-23T06:50:43.309Z,13.69
2023-05-23T06:51:43.055Z,13.66
2023-05-23T06:52:43.047Z,13.66
2023-05-23T06:53:43.015Z,13.69
2023-05-23T06:54:43.008Z,13.66
2023-05-23T06:55:42.988Z,13.62
2023-05-23T06:56:43.019Z,13.65
2023-05-23T06:57:42.978Z,13.66
2023-05-23T06:58:44.137Z,13.68
2023-05-23T06:59:42.947Z,13.71
2023-05-23T07:00:43.176Z,13.61
2023-05-23T07:01:42.988Z,13.59
2023-05-23T07:02:42.932Z,13.55
2023-05-23T07:03:42.907Z,13.57
2023-05-23T07:04:42.896Z,13.50
2023-05-23T07:05:42.907Z,13.47
2023-05-23T07:06:42.872Z,13.54
2023-05-23T07:07:42.852Z,13.59
2023-05-23T07:08:42.837Z,13.53
2023-05-23T07:09:42.831Z,13.53
2023-05-23T07:10:43.035Z,13.57
2023-05-23T07:11:42.804Z,13.59
2023-05-23T07:12:42.796Z,13.61
2023-05-23T07:13:42.791Z,13.66
2023-05-23T07:14:42.792Z,13.61
2023-05-23T07:15:42.760Z,13.51
2023-05-23T07:16:42.835Z,13.44
2023-05-23T07:17:42.794Z,13.44
2023-05-23T07:18:42.722Z,13.50
2023-05-23T07:19:42.720Z,13.62
2023-05-23T07:20:42.948Z,13.65
2023-05-23T07:21:42.722Z,13.61
2023-05-23T07:22:42.678Z,13.53
2023-05-23T07:23:42.671Z,13.54
2023-05-23T07:24:42.657Z,13.57
2023-05-23T07:25:53.937Z,13.57
2023-05-23T07:26:42.646Z,13.61
2023-05-23T07:27:42.626Z,13.62
2023-05-23T07:28:42.609Z,13.62
2023-05-23T07:29:42.608Z,13.68
2023-05-23T07:30:42.652Z,13.68
2023-05-23T07:31:42.700Z,13.65
2023-05-23T07:32:42.583Z,13.61
2023-05-23T07:33:42.566Z,13.62
2023-05-23T07:34:42.570Z,13.66
2023-05-23T07:35:42.547Z,13.62
2023-05-23T07:36:42.516Z,13.53
2023-05-23T07:37:42.544Z,13.55
2023-05-23T07:38:42.516Z,13.54
2023-05-23T07:39:43.209Z,13.61
2023-05-23T07:40:42.732Z,13.66
2023-05-23T07:41:42.482Z,13.68
2023-05-23T07:42:42.453Z,13.65
2023-05-23T07:43:42.461Z,13.68
2023-05-23T07:44:42.452Z,13.72
2023-05-23T07:45:42.436Z,13.75
2023-05-23T07:46:42.443Z,13.71
2023-05-23T07:47:42.442Z,13.66
2023-05-23T07:48:42.388Z,13.66
2023-05-23T07:49:42.385Z,13.68
2023-05-23T07:50:42.399Z,13.71
2023-05-23T07:51:42.357Z,13.71
2023-05-23T07:52:42.344Z,13.50
2023-05-23T07:53:42.346Z,13.47
2023-05-23T07:54:42.346Z,13.44
2023-05-23T07:55:42.380Z,13.41
2023-05-23T07:56:42.298Z,13.41
2023-05-23T07:57:42.294Z,13.41
2023-05-23T07:58:42.300Z,13.39
2023-05-23T07:59:42.285Z,13.32
2023-05-23T08:00:42.359Z,13.36
2023-05-23T08:01:42.365Z,13.39
2023-05-23T08:02:42.297Z,13.41
2023-05-23T08:03:42.257Z,13.44
2023-05-23T08:04:42.301Z,13.38
2023-05-23T08:05:42.228Z,13.35
2023-05-23T08:06:52.140Z,13.31
2023-05-23T08:07:42.182Z,13.29
2023-05-23T08:08:42.194Z,13.31
2023-05-23T08:09:42.164Z,13.29
2023-05-23T08:10:42.279Z,13.35
2023-05-23T08:11:42.139Z,13.22
2023-05-23T08:12:42.137Z,13.22
2023-05-23T08:13:42.171Z,13.28
2023-05-23T08:14:50.691Z,13.28
2023-05-23T08:15:42.096Z,13.31
2023-05-23T08:16:42.171Z,13.28
2023-05-23T08:17:42.206Z,13.32
2023-05-23T08:18:42.109Z,13.19
2023-05-23T08:19:42.171Z,13.22
2023-05-23T08:20:42.320Z,13.21
2023-05-23T08:21:42.055Z,13.21
2023-05-23T08:22:42.028Z,13.14
2023-05-23T08:23:42.011Z,13.09
2023-05-23T08:24:41.997Z,13.09
2023-05-23T08:25:41.995Z,13.10
2023-05-23T08:26:41.986Z,13.16
2023-05-23T08:27:41.980Z,13.21
2023-05-23T08:28:41.957Z,13.32
2023-05-23T08:29:41.943Z,13.47
2023-05-23T08:30:42.136Z,13.38
2023-05-23T08:31:41.963Z,13.43
2023-05-23T08:32:41.950Z,13.29
2023-05-23T08:33:41.901Z,13.21
2023-05-23T08:34:41.899Z,13.22
2023-05-23T08:35:41.877Z,13.21
2023-05-23T08:36:41.870Z,13.28
2023-05-23T08:37:41.868Z,13.43
2023-05-23T08:38:41.846Z,13.46
2023-05-23T08:39:41.824Z,13.55
2023-05-23T08:40:41.962Z,13.57
2023-05-23T08:41:41.824Z,13.61
2023-05-23T08:42:41.812Z,13.65
2023-05-23T08:43:41.802Z,13.66
2023-05-23T08:44:41.774Z,13.65
2023-05-23T08:45:41.786Z,13.59
2023-05-23T08:46:41.805Z,13.66
2023-05-23T08:47:41.782Z,13.66
2023-05-23T08:48:41.735Z,13.66
2023-05-23T08:49:41.722Z,13.63
2023-05-23T08:50:41.928Z,13.61
2023-05-23T08:51:41.697Z,13.55
2023-05-23T08:52:41.679Z,13.59
2023-05-23T08:53:41.672Z,13.63
2023-05-23T08:54:41.658Z,13.68
2023-05-23T08:55:41.882Z,13.68
2023-05-23T08:56:41.636Z,13.50
2023-05-23T08:57:41.631Z,13.31
2023-05-23T08:58:41.615Z,13.27
2023-05-23T08:59:41.630Z,13.25
2023-05-23T09:00:41.773Z,13.21
2023-05-23T09:01:41.736Z,13.17
2023-05-23T09:02:41.690Z,13.25
2023-05-23T09:03:41.568Z,13.24
2023-05-23T09:04:41.602Z,13.29
2023-05-23T09:05:41.580Z,13.19
2023-05-23T09:06:41.576Z,13.22
2023-05-23T09:07:41.518Z,13.32
2023-05-23T09:08:41.501Z,13.27
2023-05-23T09:09:41.518Z,13.29
2023-05-23T09:10:41.729Z,13.38
2023-05-23T09:11:41.486Z,13.29
2023-05-23T09:12:41.472Z,13.19
2023-05-23T09:13:41.458Z,12.91
2023-05-23T09:14:41.463Z,12.87
2023-05-23T09:15:41.432Z,12.95
2023-05-23T09:16:41.673Z,12.92
2023-05-23T09:17:41.452Z,12.99
2023-05-23T09:18:41.446Z,12.89
2023-05-23T09:19:41.423Z,12.88
2023-05-23T09:20:41.562Z,12.92
2023-05-23T09:21:41.387Z,12.99
2023-05-23T09:22:41.353Z,13.12
2023-05-23T09:23:41.353Z,13.13
2023-05-23T09:24:41.334Z,13.22
2023-05-23T09:25:41.320Z,13.29
2023-05-23T09:26:41.314Z,13.24
2023-05-23T09:27:41.313Z,13.13
2023-05-23T09:28:41.307Z,13.04
2023-05-23T09:29:41.317Z,13.09
2023-05-23T09:30:41.532Z,13.14
2023-05-23T09:31:41.309Z,13.12
2023-05-23T09:32:41.321Z,13.07
2023-05-23T09:33:41.276Z,13.10
2023-05-23T09:34:41.247Z,13.13
2023-05-23T09:35:41.211Z,13.24
2023-05-23T09:36:41.198Z,13.29
2023-05-23T09:37:41.206Z,13.35
2023-05-23T09:38:41.191Z,13.38
2023-05-23T09:39:41.198Z,13.36
2023-05-23T09:40:41.326Z,13.25
2023-05-23T09:41:41.146Z,13.19
2023-05-23T09:42:41.144Z,13.17
2023-05-23T09:43:41.127Z,13.24
2023-05-23T09:44:41.117Z,13.27
2023-05-23T09:45:41.100Z,13.25
2023-05-23T09:46:41.174Z,13.22
2023-05-23T09:47:41.111Z,13.24
2023-05-23T09:48:41.065Z,13.16
2023-05-23T09:49:41.061Z,13.19
2023-05-23T09:50:41.222Z,13.16
2023-05-23T09:51:41.046Z,13.01
2023-05-23T09:52:41.035Z,13.06
2023-05-23T09:53:41.020Z,13.13
2023-05-23T09:54:41.005Z,13.19
2023-05-23T09:55:40.992Z,13.27
2023-05-23T09:56:40.981Z,13.19
2023-05-23T09:57:40.979Z,13.25
2023-05-23T09:58:40.953Z,13.21
2023-05-23T09:59:40.949Z,13.29
2023-05-23T10:00:41.170Z,13.32
2023-05-23T10:01:40.994Z,13.50
2023-05-23T10:02:40.916Z,13.53
2023-05-23T10:29:41.876Z,14.26
2023-05-23T10:30:43.086Z,14.16
2023-05-23T10:31:42.874Z,14.12
2023-05-23T10:32:42.896Z,14.31
2023-05-23T10:33:43.464Z,14.57
2023-05-23T10:34:42.812Z,14.72
2023-05-23T10:35:42.809Z,14.78
2023-05-23T10:36:42.784Z,14.64
2023-05-23T10:37:42.771Z,14.49
2023-05-23T10:38:42.831Z,14.61
2023-05-23T10:39:42.755Z,14.63
2023-05-23T10:40:43.069Z,14.46
2023-05-23T10:41:42.730Z,14.59
2023-05-23T10:42:42.717Z,14.61
2023-05-23T10:43:42.707Z,14.56
2023-05-23T10:44:42.717Z,14.52
2023-05-23T10:45:42.762Z,14.45
2023-05-23T10:46:42.721Z,14.36
2023-05-23T10:47:42.699Z,14.42
2023-05-23T10:48:42.700Z,14.52
2023-05-23T10:49:42.648Z,14.23
2023-05-23T10:50:42.922Z,14.19
2023-05-23T10:51:42.657Z,14.23
2023-05-23T10:52:42.636Z,14.23
2023-05-23T10:53:42.626Z,14.20
2023-05-23T10:54:42.591Z,14.05
2023-05-23T10:55:42.566Z,14.19
2023-05-23T10:56:42.559Z,14.24
2023-05-23T10:57:42.552Z,14.34
2023-05-23T10:58:42.549Z,14.48
2023-05-23T10:59:42.514Z,14.56
2023-05-23T11:00:42.731Z,14.67
2023-05-23T11:01:42.512Z,14.75
2023-05-23T11:02:42.641Z,14.69
2023-05-23T11:03:42.576Z,14.78
2023-05-23T11:04:42.514Z,14.91
2023-05-23T11:05:42.453Z,14.95
2023-05-23T11:06:42.454Z,14.85
2023-05-23T11:07:42.445Z,14.93
2023-05-23T11:08:48.483Z,14.67
2023-05-23T11:09:42.411Z,14.71
2023-05-23T11:10:42.499Z,14.87
2023-05-23T11:11:42.396Z,15.00
2023-05-23T11:12:42.643Z,15.03
2023-05-23T11:13:42.363Z,15.15
2023-05-23T11:14:42.364Z,15.28
2023-05-23T11:15:42.343Z,15.43
2023-05-23T11:16:42.418Z,15.51
2023-05-23T11:17:42.353Z,15.52
2023-05-23T11:18:42.323Z,15.56
2023-05-23T11:19:42.398Z,15.30
2023-05-23T11:20:42.447Z,15.01
2023-05-23T11:21:42.283Z,14.90
2023-05-23T11:22:42.264Z,14.93
2023-05-23T11:23:42.249Z,14.93
2023-05-23T11:24:42.245Z,14.91
2023-05-23T11:25:42.247Z,14.90
2023-05-23T11:26:42.269Z,15.01
2023-05-23T11:27:42.314Z,15.11
2023-05-23T11:28:42.206Z,15.01
2023-05-23T11:29:42.191Z,15.12
2023-05-23T11:30:42.386Z,15.23
2023-05-23T11:31:42.198Z,15.23
2023-05-23T11:32:42.189Z,15.30
2023-05-23T11:33:42.737Z,15.43
2023-05-23T11:34:42.143Z,15.41
2023-05-23T11:35:42.147Z,15.44
2023-05-23T11:36:42.113Z,15.38
2023-05-23T11:37:42.096Z,15.37
2023-05-23T11:38:42.090Z,15.41
2023-05-23T11:39:42.085Z,15.51
2023-05-23T11:40:42.753Z,15.67
2023-05-23T11:41:42.050Z,15.74
2023-05-23T11:42:42.058Z,15.64
2023-05-23T11:43:42.047Z,15.49
2023-05-23T11:44:42.022Z,15.55
2023-05-23T11:45:42.054Z,15.53
2023-05-23T11:46:42.004Z,15.60
2023-05-23T11:47:42.016Z,15.67
2023-05-23T11:48:41.979Z,15.78
2023-05-23T11:49:41.960Z,15.93
2023-05-23T11:50:42.295Z,16.14
2023-05-23T11:51:41.973Z,16.37
2023-05-23T11:52:41.950Z,16.60
2023-05-23T11:53:41.935Z,16.66
2023-05-23T11:54:41.906Z,16.70
2023-05-23T11:55:41.906Z,16.77
2023-05-23T11:56:41.903Z,16.57
2023-05-23T11:57:41.892Z,16.18
2023-05-23T11:58:41.882Z,16.03
2023-05-23T11:59:41.865Z,16.08
2023-05-23T12:00:42.064Z,15.91
2023-05-23T12:01:41.840Z,15.84
2023-05-23T12:02:41.932Z,15.93
2023-05-23T12:03:42.119Z,16.14
2023-05-23T12:04:41.843Z,16.23
2023-05-23T12:05:41.853Z,16.37
2023-05-23T12:06:41.923Z,16.42
2023-05-23T12:07:41.786Z,16.37
2023-05-23T12:08:41.752Z,16.40
2023-05-23T12:09:41.736Z,16.54
2023-05-23T12:10:42.345Z,16.62
2023-05-23T12:11:41.727Z,16.57
2023-05-23T12:12:41.697Z,16.57
2023-05-23T12:13:41.704Z,16.51
2023-05-23T12:14:41.706Z,16.66
2023-05-23T12:15:41.713Z,16.75
2023-05-23T12:16:41.693Z,16.73
2023-05-23T12:17:41.737Z,16.82
2023-05-23T12:18:41.646Z,16.75
2023-05-23T12:19:41.716Z,16.54
2023-05-23T12:20:41.840Z,16.48
2023-05-23T12:21:41.605Z,16.36
2023-05-23T12:22:41.626Z,16.48
2023-05-23T12:23:41.583Z,16.63
2023-05-23T12:24:41.597Z,16.67
2023-05-23T12:25:41.882Z,16.54
2023-05-23T12:26:41.586Z,16.77
2023-05-23T12:27:41.602Z,16.98
2023-05-23T12:28:41.552Z,16.96
2023-05-23T12:29:41.554Z,17.02
2023-05-23T12:30:41.772Z,17.07
2023-05-23T12:31:41.596Z,17.07
2023-05-23T12:32:41.611Z,16.96
2023-05-23T12:33:41.481Z,16.87
2023-05-23T12:34:41.470Z,16.99
2023-05-23T12:35:41.659Z,17.02
2023-05-23T12:36:48.502Z,17.09
2023-05-23T12:37:41.479Z,17.05
2023-05-23T12:38:41.454Z,16.72
2023-05-23T12:39:41.423Z,16.75
2023-05-23T12:40:41.405Z,16.96
2023-05-23T12:41:41.378Z,16.91
2023-05-23T12:42:41.368Z,16.88
2023-05-23T12:43:41.414Z,16.72
2023-05-23T12:44:41.345Z,16.75
2023-05-23T12:45:41.545Z,16.92
2023-05-23T12:46:41.333Z,16.95
2023-05-23T12:47:41.382Z,17.02
2023-05-23T12:48:41.312Z,17.20
2023-05-23T12:49:41.308Z,17.40
2023-05-23T12:50:41.290Z,17.32
2023-05-23T12:51:41.277Z,17.25
2023-05-23T12:52:41.273Z,17.30
2023-05-23T12:53:41.248Z,17.22
2023-05-23T12:54:41.234Z,17.33
2023-05-23T12:55:41.443Z,17.36
2023-05-23T12:56:41.221Z,17.28
2023-05-23T12:57:41.350Z,17.35
2023-05-23T12:58:41.202Z,17.28
2023-05-23T12:59:41.182Z,17.24
2023-05-23T13:00:41.196Z,17.14
2023-05-23T13:01:41.345Z,17.12
2023-05-23T13:02:41.196Z,17.22
2023-05-23T13:03:41.174Z,17.28
2023-05-23T13:04:41.139Z,17.40
2023-05-23T13:05:41.390Z,17.43
2023-05-23T13:06:41.099Z,17.40
2023-05-23T13:07:41.094Z,17.24
2023-05-23T13:08:41.075Z,17.27
2023-05-23T13:09:41.090Z,17.20
2023-05-23T13:10:41.052Z,17.09
2023-05-23T13:11:41.046Z,17.00
2023-05-23T13:12:41.035Z,16.99
2023-05-23T13:13:27.124Z,16.96
2023-05-23T13:14:28.089Z,16.87
2023-05-23T13:15:28.065Z,16.84
2023-05-23T13:16:28.084Z,16.85
2023-05-23T13:17:28.143Z,16.81
2023-05-23T13:18:28.051Z,16.63